createdAt,value
2022-07-31T00:00:28.692Z,1007.73
2022-07-31T00:03:28.732Z,1007.79
2022-07-31T00:06:28.692Z,1007.76
2022-07-31T00:09:46.966Z,1007.77
2022-07-31T00:12:28.698Z,1007.78
2022-07-31T00:15:28.699Z,1007.78
2022-07-31T00:18:28.697Z,1007.78
2022-07-31T00:21:28.699Z,1007.77
2022-07-31T00:24:28.698Z,1007.68
2022-07-31T00:27:28.708Z,1007.66
2022-07-31T00:30:28.696Z,1007.63
2022-07-31T00:33:28.698Z,1007.63
2022-07-31T00:36:29.046Z,1007.63
2022-07-31T00:39:28.698Z,1007.56
2022-07-31T00:42:28.701Z,1007.58
2022-07-31T00:45:28.956Z,1007.57
2022-07-31T00:48:28.702Z,1007.58
2022-07-31T00:51:28.700Z,1007.61
2022-07-31T00:54:28.705Z,1007.55
2022-07-31T00:57:28.712Z,1007.57
2022-07-31T01:00:28.699Z,1007.54
2022-07-31T01:03:28.699Z,1007.52
2022-07-31T01:06:28.704Z,1007.54
2022-07-31T01:09:28.713Z,1007.49
2022-07-31T01:12:28.705Z,1007.51
2022-07-31T01:15:28.717Z,1007.5
2022-07-31T01:18:28.704Z,1007.49
2022-07-31T01:21:28.701Z,1007.43
2022-07-31T01:24:28.725Z,1007.42
2022-07-31T01:27:28.707Z,1007.42
2022-07-31T01:30:30.703Z,1007.45
2022-07-31T01:33:28.712Z,1007.44
2022-07-31T01:36:28.705Z,1007.4
2022-07-31T01:39:33.931Z,1007.37
2022-07-31T01:42:28.714Z,1007.41
2022-07-31T01:45:28.717Z,1007.42
2022-07-31T01:48:28.722Z,1007.37
2022-07-31T01:51:28.724Z,1007.37
2022-07-31T01:54:28.714Z,1007.33
2022-07-31T01:57:28.719Z,1007.31
2022-07-31T02:00:34.032Z,1007.31
2022-07-31T02:03:43.074Z,1007.28
2022-07-31T02:06:28.724Z,1007.23
2022-07-31T02:09:28.734Z,1007.19
2022-07-31T02:12:31.840Z,1007.21
2022-07-31T02:15:28.724Z,1007.22
2022-07-31T02:18:28.734Z,1007.21
2022-07-31T02:21:28.729Z,1007.19
2022-07-31T02:24:28.741Z,1007.21
2022-07-31T02:27:53.385Z,1007.19
2022-07-31T02:30:38.722Z,1007.17
2022-07-31T02:33:28.739Z,1007.14
2022-07-31T02:36:28.724Z,1007.09
2022-07-31T02:39:30.561Z,1007.12
2022-07-31T02:42:28.741Z,1007.12
2022-07-31T02:45:28.723Z,1007.19
2022-07-31T02:48:28.742Z,1007.25
2022-07-31T02:51:28.733Z,1007.22
2022-07-31T02:54:28.732Z,1007.21
2022-07-31T02:57:28.744Z,1007.21
2022-07-31T03:00:28.798Z,1007.25
2022-07-31T03:03:28.732Z,1007.27
2022-07-31T03:06:28.730Z,1007.24
2022-07-31T03:09:28.728Z,1007.22
2022-07-31T03:12:28.744Z,1007.2
2022-07-31T03:15:28.745Z,1007.16
2022-07-31T03:18:28.734Z,1007.11
2022-07-31T03:21:28.738Z,1007.09
2022-07-31T03:24:28.735Z,1007.06
2022-07-31T03:27:28.736Z,1007.03
2022-07-31T03:30:28.734Z,1006.99
2022-07-31T03:33:28.741Z,1007
2022-07-31T03:36:28.745Z,1007.03
2022-07-31T03:39:28.732Z,1007.04
2022-07-31T03:42:28.735Z,1007.07
2022-07-31T03:45:28.742Z,1007.07
2022-07-31T03:48:28.745Z,1007.05
2022-07-31T03:51:28.748Z,1007.1
2022-07-31T03:54:28.744Z,1007.11
2022-07-31T03:57:29.176Z,1007.15
2022-07-31T04:00:28.741Z,1007.16
2022-07-31T04:03:28.742Z,1007.18
2022-07-31T04:06:28.747Z,1007.24
2022-07-31T04:09:28.742Z,1007.29
2022-07-31T04:12:28.745Z,1007.26
2022-07-31T04:15:28.744Z,1007.28
2022-07-31T04:18:28.741Z,1007.29
2022-07-31T04:21:28.754Z,1007.34
2022-07-31T04:24:28.754Z,1007.31
2022-07-31T04:27:28.743Z,1007.35
2022-07-31T04:30:28.740Z,1007.32
2022-07-31T04:33:28.747Z,1007.34
2022-07-31T04:36:29.338Z,1007.35
2022-07-31T04:39:28.746Z,1007.35
2022-07-31T04:42:28.817Z,1007.31
2022-07-31T04:45:28.744Z,1007.33
2022-07-31T04:48:28.755Z,1007.29
2022-07-31T04:51:28.745Z,1007.3
2022-07-31T04:54:28.748Z,1007.32
2022-07-31T04:57:28.741Z,1007.32
2022-07-31T05:00:28.760Z,1007.31
2022-07-31T05:03:28.759Z,1007.33
2022-07-31T05:06:28.751Z,1007.31
2022-07-31T05:09:28.746Z,1007.32
2022-07-31T05:12:28.751Z,1007.32
2022-07-31T05:15:28.817Z,1007.34
2022-07-31T05:18:28.758Z,1007.35
2022-07-31T05:21:28.756Z,1007.34
2022-07-31T05:24:32.439Z,1007.32
2022-07-31T05:27:29.389Z,1007.32
2022-07-31T05:30:29.783Z,1007.34
2022-07-31T05:33:28.762Z,1007.3
2022-07-31T05:36:28.756Z,1007.33
2022-07-31T05:39:28.762Z,1007.3
2022-07-31T05:42:28.757Z,1007.28
2022-07-31T05:45:28.764Z,1007.25
2022-07-31T05:48:28.794Z,1007.22
2022-07-31T05:51:28.767Z,1007.22
2022-07-31T05:54:28.765Z,1007.27
2022-07-31T05:57:33.878Z,1007.32
2022-07-31T06:00:28.814Z,1007.32
2022-07-31T06:03:28.762Z,1007.3
2022-07-31T06:06:28.763Z,1007.33
2022-07-31T06:09:28.767Z,1007.35
2022-07-31T06:12:28.763Z,1007.32
2022-07-31T06:15:31.080Z,1007.41
2022-07-31T06:18:28.769Z,1007.45
2022-07-31T06:21:30.701Z,1007.47
2022-07-31T06:24:28.809Z,1007.47
2022-07-31T06:27:33.739Z,1007.41
2022-07-31T06:30:28.784Z,1007.39
2022-07-31T06:33:36.904Z,1007.45
2022-07-31T06:36:28.778Z,1007.39
2022-07-31T06:39:53.981Z,1007.4
2022-07-31T06:42:28.781Z,1007.43
2022-07-31T06:45:48.772Z,1007.43
2022-07-31T06:48:28.781Z,1007.45
2022-07-31T06:51:31.551Z,1007.46
2022-07-31T06:54:28.781Z,1007.5
2022-07-31T06:57:28.787Z,1007.47
2022-07-31T07:00:28.787Z,1007.44
2022-07-31T07:03:28.783Z,1007.45
2022-07-31T07:06:28.785Z,1007.45
2022-07-31T07:09:28.780Z,1007.46
2022-07-31T07:12:28.786Z,1007.48
2022-07-31T07:15:28.781Z,1007.47
2022-07-31T07:18:28.779Z,1007.43
2022-07-31T07:21:28.775Z,1007.47
2022-07-31T07:24:28.784Z,1007.39
2022-07-31T07:27:28.787Z,1007.32
2022-07-31T07:30:28.819Z,1007.33
2022-07-31T07:33:39.437Z,1007.27
2022-07-31T07:36:28.793Z,1007.32
2022-07-31T07:39:28.791Z,1007.31
2022-07-31T07:42:28.782Z,1007.34
2022-07-31T07:45:28.788Z,1007.29
2022-07-31T07:48:28.790Z,1007.28
2022-07-31T07:51:28.789Z,1007.32
2022-07-31T07:54:28.784Z,1007.31
2022-07-31T07:57:28.784Z,1007.33
2022-07-31T08:00:28.788Z,1007.24
2022-07-31T08:03:47.955Z,1007.21
2022-07-31T08:06:28.786Z,1007.24
2022-07-31T08:09:28.789Z,1007.22
2022-07-31T08:12:28.786Z,1007.18
2022-07-31T08:15:28.795Z,1007.2
2022-07-31T08:18:28.870Z,1007.17
2022-07-31T08:21:28.783Z,1007.14
2022-07-31T08:24:28.796Z,1007.13
2022-07-31T08:27:38.023Z,1007.17
2022-07-31T08:30:30.965Z,1007.16
2022-07-31T08:33:28.798Z,1007.12
2022-07-31T08:36:28.796Z,1007.11
2022-07-31T08:39:28.797Z,1007.11
2022-07-31T08:42:28.799Z,1007.07
2022-07-31T08:45:28.799Z,1007.04
2022-07-31T08:48:28.798Z,1006.98
2022-07-31T08:51:28.799Z,1006.9
2022-07-31T08:54:28.798Z,1006.89
2022-07-31T08:57:28.811Z,1006.87
2022-07-31T09:00:28.875Z,1006.9
2022-07-31T09:03:28.808Z,1006.89
2022-07-31T09:06:28.805Z,1006.82
2022-07-31T09:09:41.363Z,1006.82
2022-07-31T09:12:32.528Z,1006.8
2022-07-31T09:15:28.805Z,1006.74
2022-07-31T09:18:28.810Z,1006.77
2022-07-31T09:21:28.802Z,1006.72
2022-07-31T09:24:28.803Z,1006.67
2022-07-31T09:27:28.825Z,1006.66
2022-07-31T09:30:28.799Z,1006.57
2022-07-31T09:33:28.807Z,1006.58
2022-07-31T09:36:28.801Z,1006.55
2022-07-31T09:39:28.801Z,1006.53
2022-07-31T09:42:28.802Z,1006.54
2022-07-31T09:45:28.806Z,1006.52
2022-07-31T09:48:29.042Z,1006.48
2022-07-31T09:51:28.810Z,1006.44
2022-07-31T09:54:28.809Z,1006.44
2022-07-31T09:57:28.806Z,1006.41
2022-07-31T10:00:28.809Z,1006.35
2022-07-31T10:03:28.805Z,1006.36
2022-07-31T10:06:28.807Z,1006.3
2022-07-31T10:09:28.809Z,1006.3
2022-07-31T10:12:28.808Z,1006.26
2022-07-31T10:15:28.832Z,1006.25
2022-07-31T10:18:35.451Z,1006.21
2022-07-31T10:21:28.827Z,1006.25
2022-07-31T10:24:28.844Z,1006.25
2022-07-31T10:27:28.821Z,1006.21
2022-07-31T10:30:29.012Z,1006.17
2022-07-31T10:33:43.383Z,1006.18
2022-07-31T10:36:28.841Z,1006.14
2022-07-31T10:39:28.828Z,1006.09
2022-07-31T10:42:28.829Z,1006.05
2022-07-31T10:45:28.831Z,1006.05
2022-07-31T10:48:28.825Z,1006.04
2022-07-31T10:51:28.828Z,1006.03
2022-07-31T10:54:28.828Z,1006.01
2022-07-31T10:57:28.841Z,1005.96
2022-07-31T11:00:29.829Z,1005.91
2022-07-31T11:03:28.835Z,1005.91
2022-07-31T11:06:28.837Z,1005.8
2022-07-31T11:09:28.835Z,1005.76
2022-07-31T11:12:28.848Z,1005.72
2022-07-31T11:15:28.835Z,1005.71
2022-07-31T11:18:31.206Z,1005.71
2022-07-31T11:21:38.413Z,1005.68
2022-07-31T11:24:28.848Z,1005.62
2022-07-31T11:27:28.834Z,1005.57
2022-07-31T11:30:28.837Z,1005.58
2022-07-31T11:33:28.836Z,1005.51
2022-07-31T11:36:28.837Z,1005.47
2022-07-31T11:39:37.074Z,1005.49
2022-07-31T11:42:31.074Z,1005.52
2022-07-31T11:45:28.846Z,1005.54
2022-07-31T11:48:28.851Z,1005.5
2022-07-31T11:51:28.836Z,1005.45
2022-07-31T11:54:28.838Z,1005.44
2022-07-31T11:57:28.831Z,1005.36
2022-07-31T12:00:30.066Z,1005.27
2022-07-31T12:03:28.834Z,1005.2
2022-07-31T12:06:31.997Z,1005.18
2022-07-31T12:10:00.016Z,1005.1
2022-07-31T12:12:28.846Z,1004.99
2022-07-31T12:15:28.869Z,1004.9
2022-07-31T12:18:28.861Z,1004.86
2022-07-31T12:21:28.840Z,1004.8
2022-07-31T12:24:28.840Z,1004.69
2022-07-31T12:27:28.847Z,1004.7
2022-07-31T12:30:30.155Z,1004.73
2022-07-31T12:33:28.850Z,1004.7
2022-07-31T12:36:28.848Z,1004.62
2022-07-31T12:39:47.708Z,1004.55
2022-07-31T12:42:30.239Z,1004.5
2022-07-31T12:45:28.845Z,1004.45
2022-07-31T12:48:28.842Z,1004.42
2022-07-31T12:51:44.591Z,1004.44
2022-07-31T12:54:28.849Z,1004.4
2022-07-31T12:57:28.847Z,1004.36
2022-07-31T13:00:28.862Z,1004.26
2022-07-31T13:03:39.089Z,1004.24
2022-07-31T13:06:28.850Z,1004.21
2022-07-31T13:09:28.850Z,1004.16
2022-07-31T13:12:28.852Z,1004.1
2022-07-31T13:15:28.849Z,1004.01
2022-07-31T13:18:28.845Z,1003.97
2022-07-31T13:21:28.845Z,1003.92
2022-07-31T13:24:28.854Z,1003.93
2022-07-31T13:27:28.851Z,1003.9
2022-07-31T13:30:28.884Z,1003.89
2022-07-31T13:33:28.852Z,1003.85
2022-07-31T13:36:31.702Z,1003.84
2022-07-31T13:39:28.853Z,1003.84
2022-07-31T13:42:29.852Z,1003.77
2022-07-31T13:45:28.859Z,1003.77
2022-07-31T13:48:28.870Z,1003.67
2022-07-31T13:51:29.224Z,1003.72
2022-07-31T13:54:28.857Z,1003.71
2022-07-31T13:57:28.868Z,1003.69
2022-07-31T14:00:28.858Z,1003.74
2022-07-31T14:03:28.872Z,1003.68
2022-07-31T14:06:28.858Z,1003.7
2022-07-31T14:09:28.875Z,1003.69
2022-07-31T14:12:28.853Z,1003.65
2022-07-31T14:15:30.333Z,1003.67
2022-07-31T14:18:28.873Z,1003.66
2022-07-31T14:21:28.863Z,1003.6
2022-07-31T14:24:28.859Z,1003.59
2022-07-31T14:27:28.890Z,1003.54
2022-07-31T14:30:28.867Z,1003.56
2022-07-31T14:33:28.856Z,1003.57
2022-07-31T14:36:28.860Z,1003.6
2022-07-31T14:39:28.865Z,1003.56
2022-07-31T14:42:28.873Z,1003.56
2022-07-31T14:45:28.855Z,1003.5
2022-07-31T14:48:28.862Z,1003.51
2022-07-31T14:51:28.865Z,1003.46
2022-07-31T14:54:28.859Z,1003.47
2022-07-31T14:57:28.859Z,1003.45
2022-07-31T15:00:28.872Z,1003.45
2022-07-31T15:03:28.870Z,1003.44
2022-07-31T15:06:38.451Z,1003.46
2022-07-31T15:09:28.871Z,1003.41
2022-07-31T15:12:28.939Z,1003.39
2022-07-31T15:15:28.866Z,1003.35
2022-07-31T15:18:28.870Z,1003.38
2022-07-31T15:21:28.866Z,1003.42
2022-07-31T15:24:28.874Z,1003.37
2022-07-31T15:27:28.862Z,1003.38
2022-07-31T15:30:28.863Z,1003.31
2022-07-31T15:33:28.866Z,1003.35
2022-07-31T15:36:28.866Z,1003.35
2022-07-31T15:39:28.875Z,1003.31
2022-07-31T15:42:28.863Z,1003.31
2022-07-31T15:45:28.871Z,1003.23
2022-07-31T15:48:28.872Z,1003.2
2022-07-31T15:51:28.867Z,1003.17
2022-07-31T15:54:28.867Z,1003.14
2022-07-31T15:57:28.867Z,1003.1
2022-07-31T16:00:28.869Z,1003.07
2022-07-31T16:03:36.844Z,1003.05
2022-07-31T16:06:31.983Z,1003.07
2022-07-31T16:09:28.863Z,1003.06
2022-07-31T16:12:28.869Z,1003.03
2022-07-31T16:15:28.889Z,1002.97
2022-07-31T16:18:28.876Z,1002.98
2022-07-31T16:21:28.879Z,1002.96
2022-07-31T16:24:28.869Z,1002.92
2022-07-31T16:27:28.891Z,1002.94
2022-07-31T16:30:28.884Z,1002.84
2022-07-31T16:33:28.907Z,1002.82
2022-07-31T16:36:28.874Z,1002.76
2022-07-31T16:39:28.899Z,1002.68
2022-07-31T16:42:28.878Z,1002.69
2022-07-31T16:45:28.872Z,1002.69
2022-07-31T16:48:28.882Z,1002.68
2022-07-31T16:51:28.879Z,1002.63
2022-07-31T16:54:28.882Z,1002.59
2022-07-31T16:57:28.881Z,1002.57
2022-07-31T17:00:28.968Z,1002.61
2022-07-31T17:03:31.211Z,1002.55
2022-07-31T17:06:34.523Z,1002.61
2022-07-31T17:09:28.884Z,1002.64
2022-07-31T17:12:28.896Z,1002.58
2022-07-31T17:15:28.890Z,1002.61
2022-07-31T17:18:28.883Z,1002.64
2022-07-31T17:21:28.977Z,1002.61
2022-07-31T17:24:28.896Z,1002.62
2022-07-31T17:27:28.893Z,1002.65
2022-07-31T17:30:28.894Z,1002.68
2022-07-31T17:33:54.980Z,1002.65
2022-07-31T17:36:28.926Z,1002.63
2022-07-31T17:39:30.972Z,1002.66
2022-07-31T17:42:28.893Z,1002.66
2022-07-31T17:45:37.267Z,1002.7
2022-07-31T17:48:28.898Z,1002.74
2022-07-31T17:51:28.899Z,1002.75
2022-07-31T17:54:28.911Z,1002.74
2022-07-31T17:57:28.894Z,1002.77
2022-07-31T18:00:31.039Z,1002.85
2022-07-31T18:03:28.894Z,1002.85
2022-07-31T18:06:28.896Z,1002.86
2022-07-31T18:09:28.899Z,1002.89
2022-07-31T18:12:28.912Z,1002.89
2022-07-31T18:15:34.496Z,1002.96
2022-07-31T18:18:28.902Z,1002.97
2022-07-31T18:21:28.898Z,1003.02
2022-07-31T18:24:28.908Z,1003.07
2022-07-31T18:27:28.905Z,1003.11
2022-07-31T18:30:30.417Z,1003.11
2022-07-31T18:33:28.893Z,1003.16
2022-07-31T18:36:28.900Z,1003.18
2022-07-31T18:39:28.900Z,1003.19
2022-07-31T18:42:28.899Z,1003.22
2022-07-31T18:45:28.905Z,1003.23
2022-07-31T18:48:28.907Z,1003.24
2022-07-31T18:51:28.971Z,1003.26
2022-07-31T18:54:28.902Z,1003.24
2022-07-31T18:57:28.905Z,1003.25
2022-07-31T19:00:28.905Z,1003.28
2022-07-31T19:03:28.906Z,1003.29
2022-07-31T19:06:28.909Z,1003.3
2022-07-31T19:09:28.916Z,1003.27
2022-07-31T19:12:28.906Z,1003.35
2022-07-31T19:15:28.912Z,1003.34
2022-07-31T19:18:29.105Z,1003.34
2022-07-31T19:21:41.780Z,1003.39
2022-07-31T19:24:28.924Z,1003.41
2022-07-31T19:27:47.070Z,1003.43
2022-07-31T19:30:28.924Z,1003.48
2022-07-31T19:33:28.942Z,1003.49
2022-07-31T19:36:28.924Z,1003.55
2022-07-31T19:39:28.925Z,1003.54
2022-07-31T19:42:28.924Z,1003.57
2022-07-31T19:45:28.933Z,1003.61
2022-07-31T19:48:28.932Z,1003.64
2022-07-31T19:51:28.931Z,1003.66
2022-07-31T19:54:28.950Z,1003.68
2022-07-31T19:57:28.947Z,1003.75
2022-07-31T20:00:28.937Z,1003.8
2022-07-31T20:03:28.986Z,1003.81
2022-07-31T20:06:29.082Z,1003.79
2022-07-31T20:09:28.941Z,1003.85
2022-07-31T20:12:28.942Z,1003.86
2022-07-31T20:15:51.834Z,1003.87
2022-07-31T20:18:29.538Z,1003.92
2022-07-31T20:21:31.862Z,1003.92
2022-07-31T20:24:28.933Z,1003.92
2022-07-31T20:27:28.933Z,1003.95
2022-07-31T20:30:28.934Z,1003.97
2022-07-31T20:33:28.944Z,1003.95
2022-07-31T20:36:28.942Z,1003.98
2022-07-31T20:39:33.530Z,1003.97
2022-07-31T20:42:28.959Z,1004.01
2022-07-31T20:45:28.968Z,1004.04
2022-07-31T20:48:28.976Z,1004.04
2022-07-31T20:51:28.962Z,1004.08
2022-07-31T20:54:33.987Z,1004.04
2022-07-31T20:57:28.968Z,1004.01
2022-07-31T21:00:28.971Z,1004.02
2022-07-31T21:03:28.961Z,1003.99
2022-07-31T21:06:29.013Z,1004.04
2022-07-31T21:09:28.971Z,1004.04
2022-07-31T21:12:29.659Z,1003.99
2022-07-31T21:15:41.328Z,1004.02
2022-07-31T21:18:32.797Z,1004.05
2022-07-31T21:21:28.974Z,1004.03
2022-07-31T21:24:28.975Z,1004.02
2022-07-31T21:27:28.969Z,1004.12
2022-07-31T21:30:28.975Z,1004.09
2022-07-31T21:33:28.985Z,1004.17
2022-07-31T21:36:28.978Z,1004.15
2022-07-31T21:39:28.972Z,1004.22
2022-07-31T21:42:28.975Z,1004.21
2022-07-31T21:45:29.709Z,1004.21
2022-07-31T21:48:28.990Z,1004.24
2022-07-31T21:51:28.979Z,1004.26
2022-07-31T21:54:28.974Z,1004.25
2022-07-31T21:57:28.989Z,1004.27
2022-07-31T22:00:29.954Z,1004.28
2022-07-31T22:03:28.982Z,1004.34
2022-07-31T22:06:28.991Z,1004.4
2022-07-31T22:09:28.986Z,1004.45
2022-07-31T22:12:28.990Z,1004.5
2022-07-31T22:15:50.608Z,1004.52
2022-07-31T22:18:29.068Z,1004.53
2022-07-31T22:21:28.976Z,1004.53
2022-07-31T22:24:28.979Z,1004.55
2022-07-31T22:27:28.971Z,1004.58
2022-07-31T22:30:28.984Z,1004.62
2022-07-31T22:33:28.996Z,1004.62
2022-07-31T22:36:28.986Z,1004.65
2022-07-31T22:39:28.978Z,1004.67
2022-07-31T22:42:28.977Z,1004.69
2022-07-31T22:45:28.982Z,1004.6
2022-07-31T22:48:28.978Z,1004.66
2022-07-31T22:51:28.980Z,1004.68
2022-07-31T22:54:28.978Z,1004.65
2022-07-31T22:57:28.988Z,1004.76
2022-07-31T23:00:28.997Z,1004.76
2022-07-31T23:03:28.984Z,1004.81
2022-07-31T23:06:30.436Z,1004.87
2022-07-31T23:09:28.985Z,1004.89
2022-07-31T23:12:29.396Z,1004.91
2022-07-31T23:15:28.991Z,1004.98
2022-07-31T23:18:28.994Z,1004.97
2022-07-31T23:21:28.985Z,1005
2022-07-31T23:24:28.993Z,1005.05
2022-07-31T23:27:28.993Z,1005.05
2022-07-31T23:30:28.997Z,1005.02
2022-07-31T23:33:28.992Z,1005.02
2022-07-31T23:36:28.997Z,1004.98
2022-07-31T23:39:28.994Z,1004.93
2022-07-31T23:42:29.007Z,1004.94
2022-07-31T23:45:29.007Z,1004.92
2022-07-31T23:48:29.353Z,1004.94
2022-07-31T23:51:28.998Z,1004.89
2022-07-31T23:54:29.015Z,1004.89
2022-07-31T23:57:29.000Z,1004.91
